createdAt,value
2019-03-23T00:00:52.698Z,7.75
2019-03-23T00:03:20.029Z,7.70
2019-03-23T00:05:47.387Z,7.88
2019-03-23T00:08:14.759Z,7.98
2019-03-23T00:10:42.094Z,8.07
2019-03-23T00:13:09.451Z,8.02
2019-03-23T00:15:36.498Z,7.97
2019-03-23T00:18:03.817Z,7.97
2019-03-23T00:20:31.230Z,7.96
2019-03-23T00:22:58.564Z,7.91
2019-03-23T00:25:25.866Z,7.91
2019-03-23T00:27:52.974Z,7.88
2019-03-23T00:30:20.030Z,7.88
2019-03-23T00:32:47.079Z,7.94
2019-03-23T00:35:14.415Z,7.96
2019-03-23T00:37:42.681Z,7.98
2019-03-23T00:40:09.979Z,8.04
2019-03-23T00:42:37.019Z,8.03
2019-03-23T00:45:04.064Z,8.05
2019-03-23T00:47:31.350Z,8.00
2019-03-23T00:49:58.401Z,8.04
2019-03-23T00:52:25.443Z,8.00
2019-03-23T00:54:52.489Z,7.96
2019-03-23T00:57:19.527Z,7.88
2019-03-23T00:59:46.581Z,7.85
2019-03-23T01:02:13.859Z,7.80
2019-03-23T01:04:40.907Z,7.77
2019-03-23T01:07:08.196Z,7.70
2019-03-23T01:09:35.229Z,7.68
2019-03-23T01:12:02.530Z,7.64
2019-03-23T01:14:29.557Z,7.57
2019-03-23T01:16:56.615Z,7.53
2019-03-23T01:19:23.894Z,7.46
2019-03-23T01:21:50.948Z,7.39
2019-03-23T01:24:17.982Z,7.34
2019-03-23T01:26:45.392Z,7.31
2019-03-23T01:29:12.441Z,7.26
2019-03-23T01:31:39.793Z,7.19
2019-03-23T01:34:06.911Z,7.11
2019-03-23T01:36:33.974Z,7.05
2019-03-23T01:39:01.003Z,7.05
2019-03-23T01:41:30.138Z,7.03
2019-03-23T01:43:57.183Z,7.00
2019-03-23T01:46:24.574Z,6.98
2019-03-23T01:48:51.613Z,6.95
2019-03-23T01:51:18.739Z,6.94
2019-03-23T01:53:46.117Z,6.94
2019-03-23T01:56:13.452Z,6.95
2019-03-23T01:58:40.497Z,6.93
2019-03-23T02:01:07.547Z,6.94
2019-03-23T02:03:34.906Z,6.94
2019-03-23T02:06:01.964Z,6.94
2019-03-23T02:08:29.009Z,6.91
2019-03-23T02:10:56.373Z,6.89
2019-03-23T02:13:23.435Z,6.90
2019-03-23T02:15:50.760Z,6.94
2019-03-23T02:18:18.133Z,6.93
2019-03-23T02:20:45.166Z,6.96
2019-03-23T02:23:12.221Z,7.01
2019-03-23T02:25:39.278Z,7.01
2019-03-23T02:28:06.330Z,7.03
2019-03-23T02:30:33.635Z,7.05
2019-03-23T02:33:00.695Z,7.07
2019-03-23T02:35:27.725Z,7.09
2019-03-23T02:37:54.784Z,7.07
2019-03-23T02:40:21.823Z,7.08
2019-03-23T02:42:49.119Z,7.08
2019-03-23T02:45:16.162Z,7.07
2019-03-23T02:47:43.470Z,7.05
2019-03-23T02:50:10.858Z,7.06
2019-03-23T02:52:37.913Z,7.07
2019-03-23T02:55:04.959Z,7.03
2019-03-23T02:57:32.313Z,7.05
2019-03-23T02:59:59.357Z,7.05
2019-03-23T03:02:26.733Z,7.04
2019-03-23T03:04:54.718Z,7.04
2019-03-23T03:07:22.013Z,7.00
2019-03-23T03:09:49.321Z,6.97
2019-03-23T03:12:16.612Z,6.94
2019-03-23T03:14:43.654Z,6.80
2019-03-23T03:17:10.724Z,6.72
2019-03-23T03:19:38.005Z,6.69
2019-03-23T03:22:05.301Z,6.67
2019-03-23T03:24:32.339Z,6.67
2019-03-23T03:26:59.751Z,6.69
2019-03-23T03:29:26.788Z,6.69
2019-03-23T03:31:53.870Z,6.65
2019-03-23T03:34:21.149Z,6.66
2019-03-23T03:36:48.454Z,6.67
2019-03-23T03:39:15.492Z,6.68
2019-03-23T03:41:42.866Z,6.67
2019-03-23T03:44:09.915Z,6.68
2019-03-23T03:46:36.960Z,6.70
2019-03-23T03:49:12.378Z,6.72
2019-03-23T03:51:33.052Z,6.73
2019-03-23T03:54:00.457Z,6.77
2019-03-23T03:56:27.828Z,6.77
2019-03-23T03:58:54.885Z,6.76
2019-03-23T04:01:21.923Z,6.80
2019-03-23T04:03:49.230Z,6.79
2019-03-23T04:06:16.615Z,6.76
2019-03-23T04:08:43.680Z,6.70
2019-03-23T04:11:11.022Z,6.69
2019-03-23T04:13:38.074Z,6.68
2019-03-23T04:16:05.711Z,6.61
2019-03-23T04:18:33.071Z,6.58
2019-03-23T04:21:00.360Z,6.54
2019-03-23T04:23:27.695Z,6.49
2019-03-23T04:25:54.995Z,6.46
2019-03-23T04:28:22.043Z,6.42
2019-03-23T04:30:49.349Z,6.40
2019-03-23T04:33:16.726Z,6.36
2019-03-23T04:35:43.760Z,6.30
2019-03-23T04:40:43.706Z,6.22
2019-03-23T04:43:10.758Z,6.16
2019-03-23T04:45:38.867Z,6.09
2019-03-23T04:48:05.923Z,6.03
2019-03-23T04:50:33.314Z,5.99
2019-03-23T04:53:00.661Z,5.98
2019-03-23T04:55:27.699Z,5.98
2019-03-23T04:57:54.998Z,5.98
2019-03-23T05:00:22.036Z,5.94
2019-03-23T05:02:49.088Z,5.93
2019-03-23T05:05:16.133Z,5.94
2019-03-23T05:07:43.462Z,5.93
2019-03-23T05:10:11.842Z,5.95
2019-03-23T05:12:38.881Z,5.96
2019-03-23T05:15:05.938Z,5.95
2019-03-23T05:17:32.973Z,5.93
2019-03-23T05:20:00.357Z,5.95
2019-03-23T05:22:27.387Z,5.94
2019-03-23T05:24:54.746Z,5.92
2019-03-23T05:27:22.098Z,5.91
2019-03-23T05:29:49.453Z,6.02
2019-03-23T05:32:16.810Z,6.20
2019-03-23T05:34:43.868Z,6.47
2019-03-23T05:37:11.229Z,6.92
2019-03-23T05:39:38.286Z,7.44
2019-03-23T05:42:05.630Z,7.94
2019-03-23T05:44:33.755Z,8.51
2019-03-23T05:47:01.046Z,9.13
2019-03-23T05:49:28.368Z,9.83
2019-03-23T05:51:55.761Z,10.61
2019-03-23T05:54:22.811Z,11.42
2019-03-23T05:56:49.855Z,12.11
2019-03-23T05:59:16.913Z,12.70
2019-03-23T06:01:43.963Z,13.12
2019-03-23T06:09:36.164Z,14.12
2019-03-23T06:12:07.775Z,14.44
2019-03-23T06:17:08.668Z,15.30
2019-03-23T06:19:38.263Z,15.81
2019-03-23T06:22:13.504Z,16.29
2019-03-23T06:24:42.013Z,16.67
2019-03-23T06:27:16.137Z,17.11
2019-03-23T06:32:24.788Z,17.93
2019-03-23T06:34:52.219Z,18.30
2019-03-23T06:40:08.957Z,18.87
2019-03-23T06:42:59.750Z,19.10
2019-03-23T06:45:24.170Z,19.41
2019-03-23T06:47:54.563Z,19.79
2019-03-23T06:52:58.349Z,20.69
2019-03-23T06:55:30.355Z,21.12
2019-03-23T06:57:58.502Z,21.45
2019-03-23T07:08:31.363Z,23.34
2019-03-23T07:10:54.629Z,23.89
2019-03-23T07:13:22.563Z,24.24
2019-03-23T07:15:51.141Z,24.35
2019-03-23T07:18:29.755Z,24.34
2019-03-23T07:20:56.821Z,24.39
2019-03-23T07:23:25.097Z,24.48
2019-03-23T07:25:53.288Z,24.52
2019-03-23T07:31:09.357Z,24.95
2019-03-23T07:33:43.681Z,25.25
2019-03-23T07:36:15.456Z,25.47
2019-03-23T07:41:11.828Z,25.66
2019-03-23T07:43:42.244Z,25.85
2019-03-23T07:46:11.456Z,26.00
2019-03-23T07:48:50.659Z,26.27
2019-03-23T07:56:27.872Z,26.23
2019-03-23T07:59:03.301Z,26.12
2019-03-23T08:01:35.310Z,26.18
2019-03-23T08:04:13.721Z,26.00
2019-03-23T08:06:46.721Z,26.09
2019-03-23T08:09:25.833Z,26.21
2019-03-23T08:11:54.276Z,26.23
2019-03-23T08:14:25.239Z,26.33
2019-03-23T08:19:28.066Z,26.41
2019-03-23T08:21:55.111Z,26.07
2019-03-23T08:24:31.254Z,26.09
2019-03-23T08:29:40.224Z,26.21
2019-03-23T08:32:14.607Z,26.43
2019-03-23T08:34:42.053Z,26.66
2019-03-23T08:37:22.586Z,26.92
2019-03-23T08:39:55.251Z,27.26
2019-03-23T08:42:23.183Z,27.17
2019-03-23T08:44:54.925Z,26.86
2019-03-23T08:47:36.600Z,26.97
2019-03-23T08:50:04.195Z,27.04
2019-03-23T08:52:48.912Z,27.01
2019-03-23T08:55:16.156Z,26.83
2019-03-23T08:57:45.346Z,26.73
2019-03-23T09:02:54.883Z,26.90
2019-03-23T09:05:22.149Z,26.85
2019-03-23T09:07:49.272Z,26.86
2019-03-23T09:12:51.266Z,27.17
2019-03-23T09:18:10.151Z,27.24
2019-03-23T09:23:26.699Z,26.88
2019-03-23T09:28:33.367Z,26.56
2019-03-23T09:31:04.510Z,26.71
2019-03-23T09:33:31.930Z,26.64
2019-03-23T09:35:59.272Z,26.80
2019-03-23T09:38:26.623Z,26.88
2019-03-23T09:40:53.681Z,26.95
2019-03-23T09:43:20.796Z,27.11
2019-03-23T09:45:47.850Z,26.94
2019-03-23T09:48:15.227Z,26.91
2019-03-23T09:50:42.578Z,26.80
2019-03-23T09:53:09.867Z,27.00
2019-03-23T09:55:37.188Z,27.03
2019-03-23T09:58:04.235Z,26.87
2019-03-23T10:00:31.303Z,27.00
2019-03-23T10:02:58.349Z,27.49
2019-03-23T10:05:25.687Z,27.55
2019-03-23T10:07:52.733Z,27.31
2019-03-23T10:10:22.003Z,27.37
2019-03-23T10:12:48.535Z,27.63
2019-03-23T10:15:15.956Z,26.99
2019-03-23T10:17:43.007Z,27.08
2019-03-23T10:20:10.056Z,27.39
2019-03-23T10:22:37.365Z,27.34
2019-03-23T10:25:05.375Z,27.67
2019-03-23T10:27:32.703Z,28.15
2019-03-23T10:30:00.116Z,27.92
2019-03-23T10:32:27.459Z,28.21
2019-03-23T10:34:54.506Z,28.28
2019-03-23T10:37:22.640Z,28.26
2019-03-23T10:39:49.687Z,28.38
2019-03-23T10:42:16.766Z,28.04
2019-03-23T10:44:44.089Z,28.09
2019-03-23T10:47:11.411Z,28.08
2019-03-23T10:49:38.699Z,28.16
2019-03-23T10:52:05.995Z,28.46
2019-03-23T10:54:33.303Z,28.22
2019-03-23T10:57:00.607Z,28.09
2019-03-23T10:59:28.134Z,28.43
2019-03-23T11:01:55.160Z,28.43
2019-03-23T11:04:22.200Z,28.10
2019-03-23T11:06:49.565Z,28.27
2019-03-23T11:09:16.612Z,28.59
2019-03-23T11:11:43.666Z,28.67
2019-03-23T11:14:11.038Z,29.09
2019-03-23T11:16:38.390Z,29.47
2019-03-23T11:19:13.365Z,30.00
2019-03-23T11:21:34.826Z,30.79
2019-03-23T11:24:01.869Z,31.44
2019-03-23T11:26:28.936Z,31.92
2019-03-23T11:28:55.975Z,32.02
2019-03-23T11:34:04.508Z,32.13
2019-03-23T11:36:31.564Z,32.62
2019-03-23T11:38:58.908Z,33.00
2019-03-23T11:41:26.214Z,33.49
2019-03-23T11:43:53.258Z,33.58
2019-03-23T11:46:20.304Z,33.83
2019-03-23T11:48:50.597Z,33.97
2019-03-23T11:51:17.803Z,33.44
2019-03-23T11:53:45.111Z,33.07
2019-03-23T11:56:12.446Z,32.81
2019-03-23T11:58:39.843Z,32.63
2019-03-23T12:01:06.887Z,32.76
2019-03-23T12:03:33.956Z,32.59
2019-03-23T12:06:01.002Z,32.18
2019-03-23T12:08:28.060Z,32.08
2019-03-23T12:11:02.866Z,32.42
2019-03-23T12:16:13.007Z,32.23
2019-03-23T12:18:40.289Z,32.67
2019-03-23T12:21:22.681Z,33.17
2019-03-23T12:23:50.112Z,33.37
2019-03-23T12:26:17.805Z,32.16
2019-03-23T12:28:44.858Z,32.16
2019-03-23T12:31:22.946Z,32.16
2019-03-23T12:39:05.310Z,32.19
2019-03-23T12:41:42.986Z,32.50
2019-03-23T12:44:11.179Z,32.74
2019-03-23T12:46:48.491Z,32.38
2019-03-23T12:49:15.114Z,32.02
2019-03-23T12:51:51.357Z,31.50
2019-03-23T12:54:20.831Z,31.18
2019-03-23T12:56:59.373Z,31.13
2019-03-23T12:59:27.011Z,30.94
2019-03-23T13:02:05.246Z,31.27
2019-03-23T13:04:33.452Z,31.45
2019-03-23T13:07:07.640Z,31.73
2019-03-23T13:12:21.984Z,31.96
2019-03-23T13:14:53.301Z,32.14
2019-03-23T13:20:04.461Z,30.27
2019-03-23T13:22:36.028Z,29.00
2019-03-23T13:25:03.078Z,27.66
2019-03-23T13:27:31.619Z,26.66
2019-03-23T13:29:58.786Z,25.86
2019-03-23T13:32:27.244Z,24.44
2019-03-23T13:35:07.934Z,23.14
2019-03-23T13:40:13.702Z,21.65
2019-03-23T13:48:00.831Z,20.00
2019-03-23T13:50:27.877Z,19.55
2019-03-23T13:52:55.355Z,19.22
2019-03-23T13:55:24.843Z,18.96
2019-03-23T13:57:56.753Z,18.69
2019-03-23T14:03:27.683Z,18.29
2019-03-23T14:06:13.780Z,18.25
2019-03-23T14:08:46.894Z,18.24
2019-03-23T14:11:27.235Z,18.07
2019-03-23T14:13:55.431Z,17.99
2019-03-23T14:16:23.191Z,17.87
2019-03-23T14:18:51.370Z,17.76
2019-03-23T14:21:31.729Z,17.75
2019-03-23T14:26:38.504Z,17.68
2019-03-23T14:29:05.779Z,17.54
2019-03-23T14:31:34.214Z,17.44
2019-03-23T14:34:06.322Z,17.39
2019-03-23T14:36:34.578Z,17.37
2019-03-23T14:39:06.529Z,17.33
2019-03-23T14:41:47.259Z,17.25
2019-03-23T14:44:15.664Z,17.22
2019-03-23T14:46:45.914Z,17.17
2019-03-23T14:51:50.014Z,17.11
2019-03-23T15:04:58.976Z,16.81
2019-03-23T15:07:32.029Z,16.80
2019-03-23T15:09:59.302Z,16.71
2019-03-23T15:18:07.755Z,16.58
2019-03-23T15:23:08.464Z,16.48
2019-03-23T15:25:35.528Z,16.44
2019-03-23T15:28:08.628Z,16.40
2019-03-23T15:30:40.257Z,16.35
2019-03-23T15:33:14.503Z,16.27
2019-03-23T15:38:18.782Z,16.15
2019-03-23T15:40:47.300Z,16.12
2019-03-23T15:43:22.385Z,16.08
2019-03-23T15:48:23.940Z,16.02
2019-03-23T15:56:14.224Z,15.81
2019-03-23T16:01:30.720Z,15.72
2019-03-23T16:04:08.137Z,15.68
2019-03-23T16:09:11.651Z,15.57
2019-03-23T16:14:33.345Z,15.45
2019-03-23T16:17:07.335Z,15.36
2019-03-23T16:19:40.604Z,15.28
2019-03-23T16:22:12.084Z,15.21
2019-03-23T16:27:14.700Z,15.10
2019-03-23T16:29:46.321Z,14.98
2019-03-23T16:32:26.477Z,14.90
2019-03-23T16:34:55.963Z,14.82
2019-03-23T16:37:40.546Z,14.69
2019-03-23T16:40:08.099Z,14.67
2019-03-23T16:42:50.451Z,14.62
2019-03-23T16:45:22.190Z,14.55
2019-03-23T16:48:00.389Z,14.45
2019-03-23T16:50:32.628Z,14.37
2019-03-23T16:53:06.776Z,14.25
2019-03-23T16:55:34.066Z,14.14
2019-03-23T16:58:05.239Z,14.03
2019-03-23T17:00:37.030Z,13.92
2019-03-23T17:03:04.274Z,13.82
2019-03-23T17:05:31.547Z,13.73
2019-03-23T17:08:05.305Z,13.64
2019-03-23T17:10:33.655Z,13.54
2019-03-23T17:13:06.701Z,13.43
2019-03-23T17:15:38.477Z,13.34
2019-03-23T17:18:13.798Z,13.26
2019-03-23T17:20:42.002Z,13.16
2019-03-23T17:23:22.232Z,13.07
2019-03-23T17:25:53.657Z,13.00
2019-03-23T17:31:11.120Z,12.77
2019-03-23T17:33:48.789Z,12.60
2019-03-23T17:36:16.920Z,12.47
2019-03-23T17:38:45.075Z,12.35
2019-03-23T17:41:13.647Z,12.29
2019-03-23T17:43:45.007Z,12.28
2019-03-23T17:46:14.223Z,12.28
2019-03-23T17:48:48.321Z,12.22
2019-03-23T17:51:15.596Z,12.17
2019-03-23T17:56:36.180Z,12.02
2019-03-23T17:59:04.644Z,11.93
2019-03-23T18:01:36.756Z,11.87
2019-03-23T18:04:06.220Z,11.80
2019-03-23T18:06:33.409Z,11.74
2019-03-23T18:09:01.944Z,11.72
2019-03-23T18:14:21.130Z,11.59
2019-03-23T18:16:48.332Z,11.51
2019-03-23T18:19:28.875Z,11.39
2019-03-23T18:21:58.451Z,11.27
2019-03-23T18:24:31.880Z,11.24
2019-03-23T18:26:59.228Z,11.22
2019-03-23T18:29:33.216Z,11.21
2019-03-23T18:34:51.890Z,11.22
2019-03-23T18:37:20.517Z,11.27
2019-03-23T18:39:48.679Z,11.34
2019-03-23T18:44:54.927Z,11.44
2019-03-23T18:47:26.527Z,11.43
2019-03-23T18:49:55.711Z,11.37
2019-03-23T18:54:56.682Z,11.25
2019-03-23T19:00:10.538Z,11.15
2019-03-23T19:02:38.718Z,11.14
2019-03-23T19:05:16.194Z,11.16
2019-03-23T19:15:48.334Z,11.12
2019-03-23T19:18:16.611Z,11.08
2019-03-23T19:20:46.911Z,11.06
2019-03-23T19:23:17.469Z,11.07
2019-03-23T19:25:44.669Z,11.05
2019-03-23T19:28:11.943Z,10.99
2019-03-23T19:30:41.148Z,10.84
2019-03-23T19:35:43.044Z,10.56
2019-03-23T19:38:11.219Z,10.48
2019-03-23T19:40:47.968Z,10.45
2019-03-23T19:43:16.179Z,10.38
2019-03-23T19:45:45.673Z,10.32
2019-03-23T19:48:15.779Z,10.29
2019-03-23T19:50:44.084Z,10.29
2019-03-23T19:53:16.238Z,10.28
2019-03-23T19:55:44.691Z,10.38
2019-03-23T19:58:12.838Z,10.42
2019-03-23T20:00:40.043Z,10.39
2019-03-23T20:03:11.920Z,10.36
2019-03-23T20:05:49.290Z,10.38
2019-03-23T20:11:12.835Z,10.37
2019-03-23T20:13:40.954Z,10.33
2019-03-23T20:16:09.110Z,10.31
2019-03-23T20:21:08.614Z,10.35
2019-03-23T20:28:48.738Z,10.43
2019-03-23T20:31:25.188Z,10.45
2019-03-23T20:33:54.772Z,10.42
2019-03-23T20:39:09.446Z,10.32
2019-03-23T20:41:37.733Z,10.28
2019-03-23T20:44:09.416Z,10.25
2019-03-23T20:46:40.877Z,10.23
2019-03-23T20:49:12.031Z,10.25
2019-03-23T20:51:55.823Z,10.25
2019-03-23T20:54:23.396Z,10.17
2019-03-23T20:56:54.420Z,10.13
2019-03-23T20:59:22.004Z,10.10
2019-03-23T21:01:50.561Z,10.06
2019-03-23T21:04:17.759Z,10.04
2019-03-23T21:06:44.993Z,10.03
2019-03-23T21:09:17.341Z,10.03
2019-03-23T21:11:45.031Z,10.04
2019-03-23T21:14:20.114Z,9.99
2019-03-23T21:16:45.973Z,9.95
2019-03-23T21:19:15.210Z,9.87
2019-03-23T21:21:50.227Z,9.82
2019-03-23T21:27:00.206Z,9.74
2019-03-23T21:29:28.434Z,9.68
2019-03-23T21:32:00.637Z,9.62
2019-03-23T21:37:06.625Z,9.56
2019-03-23T21:39:34.258Z,9.54
2019-03-23T21:42:15.550Z,9.51
2019-03-23T21:44:43.743Z,9.49
2019-03-23T21:47:17.300Z,9.48
2019-03-23T21:49:45.525Z,9.42
2019-03-23T21:52:16.253Z,9.34
2019-03-23T21:54:44.435Z,9.29
2019-03-23T21:57:12.475Z,9.28
2019-03-23T21:59:41.696Z,9.28
2019-03-23T22:02:09.991Z,9.25
2019-03-23T22:04:38.151Z,9.24
2019-03-23T22:07:15.417Z,9.22
2019-03-23T22:09:46.847Z,9.20
2019-03-23T22:12:17.193Z,9.23
2019-03-23T22:14:44.626Z,9.27
2019-03-23T22:17:19.597Z,9.26
2019-03-23T22:19:47.778Z,9.15
2019-03-23T22:22:16.035Z,9.06
2019-03-23T22:24:44.489Z,8.99
2019-03-23T22:27:12.228Z,8.92
2019-03-23T22:29:39.282Z,8.90
2019-03-23T22:32:20.612Z,8.94
2019-03-23T22:37:23.178Z,9.03
2019-03-23T22:42:26.841Z,9.05
2019-03-23T22:50:17.685Z,9.08
2019-03-23T22:52:51.337Z,9.05
2019-03-23T22:55:22.222Z,8.96
2019-03-23T22:57:50.384Z,8.85
2019-03-23T23:00:23.749Z,8.77
2019-03-23T23:03:03.802Z,8.70
2019-03-23T23:10:45.778Z,8.54
2019-03-23T23:13:19.232Z,8.49
2019-03-23T23:15:50.833Z,8.47
2019-03-23T23:18:26.050Z,8.44
2019-03-23T23:20:54.245Z,8.40
2019-03-23T23:23:21.478Z,8.35
2019-03-23T23:25:50.058Z,8.32
2019-03-23T23:28:25.099Z,8.30
2019-03-23T23:30:52.150Z,8.27
2019-03-23T23:33:26.571Z,8.24
2019-03-23T23:35:58.448Z,8.20
2019-03-23T23:41:25.062Z,8.12
2019-03-23T23:46:28.695Z,8.07
2019-03-23T23:48:56.690Z,8.06
2019-03-23T23:51:26.155Z,8.01
2019-03-23T23:53:53.845Z,7.96
2019-03-23T23:56:23.373Z,7.91
2019-03-23T23:58:55.302Z,7.86
